createdAt,value
2018-02-06T18:49:55.914Z,18.5
2018-02-06T18:50:55.350Z,18.5
2018-02-06T18:51:55.842Z,18.5
2018-02-06T18:52:56.269Z,18.5
2018-02-06T18:53:55.730Z,18.5
2018-02-06T18:54:56.289Z,18.5
2018-02-06T18:55:55.975Z,18.5
2018-02-06T18:56:55.389Z,18.5
2018-02-06T18:57:55.940Z,18.5
2018-02-06T18:58:55.353Z,18.5
2018-02-06T18:59:55.771Z,18.5
2018-02-06T19:00:56.308Z,18.75
2018-02-06T19:01:55.734Z,18.75
2018-02-06T19:02:56.170Z,18.75
2018-02-06T19:03:55.649Z,18.75
2018-02-06T19:04:56.066Z,18.75
2018-02-06T19:05:55.598Z,18.75
2018-02-06T19:06:56.029Z,18.75
2018-02-06T19:07:55.470Z,18.75
2018-02-06T19:08:55.890Z,18.75
2018-02-06T19:09:55.298Z,18.75
2018-02-06T19:10:55.754Z,18.75
2018-02-06T19:11:56.171Z,18.75
2018-02-06T19:23:13.137Z,19
2018-02-06T19:24:13.527Z,19.25
2018-02-06T19:25:12.942Z,19.25
2018-02-06T19:26:13.365Z,19
2018-02-06T19:27:12.789Z,19
2018-02-06T19:28:13.237Z,19
2018-02-06T19:29:12.645Z,18.75
2018-02-06T19:30:13.064Z,18.75
2018-02-06T19:31:13.491Z,18.75
2018-02-06T19:32:12.935Z,18.75
2018-02-06T19:33:13.338Z,18.75
2018-02-06T19:34:12.740Z,18.75
2018-02-06T19:35:13.146Z,18.75
2018-02-06T19:36:13.537Z,18.75
2018-02-06T19:37:12.968Z,18.75
2018-02-06T19:38:13.398Z,18.75
2018-02-06T19:39:12.916Z,18.75
2018-02-06T19:40:13.305Z,18.75
2018-02-06T19:41:12.702Z,18.75
2018-02-06T19:47:37.446Z,18.75
2018-02-06T19:48:02.800Z,18.75
2018-02-06T19:50:20.700Z,18.75
2018-02-06T19:51:20.824Z,18.75
2018-02-06T19:51:27.696Z,19
2018-02-06T19:51:59.062Z,19
2018-02-06T19:52:07.761Z,19
2018-02-06T19:53:08.165Z,19
2018-02-06T19:54:07.582Z,19
2018-02-06T19:55:08.045Z,19
2018-02-06T19:55:48.048Z,19
2018-02-06T19:56:48.469Z,19
2018-02-06T19:57:25.292Z,19
2018-02-06T19:57:59.736Z,19
2018-02-06T19:58:37.144Z,18.75
2018-02-06T19:58:44.536Z,19
2018-02-06T19:59:37.930Z,18.75
2018-02-06T20:00:34.376Z,18.75
2018-02-06T20:01:00.603Z,18.75
2018-02-06T20:02:01.083Z,18.75
2018-02-06T20:04:01.093Z,18.75
2018-02-06T20:05:00.577Z,18.75
2018-02-06T20:06:01.065Z,18.75
2018-02-06T20:07:00.543Z,18.75
2018-02-06T20:08:00.988Z,18.5
2018-02-06T20:09:00.471Z,18.5
2018-02-06T20:10:01.015Z,18.5
2018-02-06T20:11:00.521Z,18.5
2018-02-06T20:12:00.999Z,18.5
2018-02-06T20:13:00.513Z,18.5
2018-02-06T20:14:00.971Z,18.5
2018-02-06T20:14:11.743Z,18.5
2018-02-06T20:15:12.134Z,18.5
2018-02-06T20:16:11.541Z,18.5
2018-02-06T20:17:11.896Z,18.5
2018-02-06T20:18:14.361Z,18.5
2018-02-06T20:19:14.857Z,18.5
2018-02-06T20:20:14.240Z,18.5
2018-02-06T20:21:14.671Z,18.75
2018-02-06T20:22:14.120Z,18.5
2018-02-06T20:23:14.654Z,18.75
2018-02-06T20:24:14.066Z,18.75
2018-02-06T20:25:14.569Z,18.5
2018-02-06T20:26:13.998Z,18.75
2018-02-06T20:27:14.428Z,18.75
2018-02-06T20:28:14.869Z,18.75
2018-02-06T20:29:14.307Z,18.75
2018-02-06T20:30:14.755Z,18.5
2018-02-06T20:31:14.195Z,18.5
2018-02-06T20:32:14.629Z,18.5
2018-02-06T20:33:14.062Z,18.5
2018-02-06T20:34:14.497Z,18.5
2018-02-06T20:35:13.926Z,18.5
2018-02-06T20:36:21.031Z,18.5
2018-02-06T20:37:22.641Z,18.5
2018-02-06T20:38:27.469Z,18.5
2018-02-06T20:39:26.374Z,18.5
2018-02-06T20:40:28.179Z,18.5
2018-02-06T20:41:16.262Z,18.5
2018-02-06T20:42:16.629Z,18.5
2018-02-06T20:42:28.184Z,18.5
2018-02-06T20:43:28.541Z,18.5
2018-02-06T20:43:40.050Z,18.5
2018-02-06T20:44:00.180Z,18.5
2018-02-06T20:45:00.559Z,18.5
2018-02-06T20:45:12.088Z,18.5
2018-02-06T20:46:12.628Z,18.5
2018-02-06T20:46:35.489Z,18.5
2018-02-06T20:47:35.924Z,18.5
2018-02-06T20:47:47.359Z,18.5
2018-02-06T20:48:47.725Z,18.5
2018-02-06T20:48:59.182Z,18.5
2018-02-06T20:49:59.709Z,18.5
2018-02-06T20:50:11.118Z,18.5
2018-02-06T20:51:11.603Z,18.5
2018-02-06T20:51:22.873Z,18.5
2018-02-06T20:52:22.826Z,18.5
2018-02-06T20:52:35.325Z,18.5
2018-02-06T20:53:35.798Z,18.5
2018-02-06T20:53:46.976Z,18.5
2018-02-06T20:54:27.072Z,18.5
2018-02-06T20:55:27.524Z,18.5
2018-02-06T20:56:25.247Z,18.5
2018-02-06T20:57:25.615Z,18.5
2018-02-06T20:58:25.018Z,18.5
2018-02-06T20:59:25.402Z,18.5
2018-02-06T21:00:25.754Z,18.75
2018-02-06T21:01:25.390Z,18.5
2018-02-06T21:02:25.766Z,18.5
2018-02-06T21:03:25.120Z,18.5
2018-02-06T21:04:25.687Z,18.5
2018-02-06T21:05:25.079Z,18.5
2018-02-06T21:06:25.464Z,18.5
2018-02-06T21:07:43.277Z,18.5
2018-02-06T21:08:43.647Z,18.5
2018-02-06T21:09:43.022Z,18.5
2018-02-06T21:10:52.472Z,18.5
2018-02-06T21:11:52.878Z,18.5
2018-02-06T21:12:52.884Z,18.5
2018-02-06T21:13:13.436Z,18.5
2018-02-06T21:14:13.811Z,18.5
2018-02-06T21:14:58.929Z,18.5
2018-02-06T21:15:59.383Z,18.25
2018-02-06T21:16:58.797Z,18.25
2018-02-06T21:17:59.204Z,18.25
2018-02-06T21:18:58.637Z,18.25
2018-02-06T21:19:59.088Z,18
2018-02-06T21:20:58.553Z,18
2018-02-06T21:21:59.002Z,18
2018-02-06T21:22:59.412Z,18
2018-02-06T21:23:58.821Z,18
2018-02-06T21:24:59.288Z,18
2018-02-06T21:25:58.752Z,18
2018-02-06T21:26:59.175Z,18
2018-02-06T21:27:58.639Z,18
2018-02-06T21:28:59.095Z,18
2018-02-06T21:29:58.547Z,18
2018-02-06T21:30:59.018Z,18
2018-02-06T21:31:59.445Z,18
2018-02-06T21:32:59.032Z,18
2018-02-06T21:33:59.523Z,18
2018-02-06T21:34:58.989Z,18
2018-02-06T21:35:59.498Z,18
2018-02-06T21:36:59.044Z,18
2018-02-06T21:37:59.481Z,18
2018-02-06T21:38:58.916Z,18
2018-02-06T21:39:59.365Z,18
2018-02-06T21:40:58.822Z,18
2018-02-06T21:41:59.369Z,18
2018-02-06T21:42:58.811Z,18
2018-02-06T21:43:59.228Z,18
2018-02-06T21:44:58.914Z,18
2018-02-06T21:45:59.372Z,18
2018-02-06T21:46:58.815Z,18
2018-02-06T21:47:59.256Z,18
2018-02-06T21:48:58.711Z,17.75
2018-02-06T21:49:59.274Z,17.75
2018-02-06T21:50:58.683Z,18
2018-02-06T21:51:59.127Z,17.75
2018-02-06T21:52:58.670Z,17.75
2018-02-06T21:53:59.121Z,17.75
2018-02-06T21:54:58.577Z,17.75
2018-02-06T21:55:59.006Z,17.75
2018-02-06T21:56:59.491Z,17.75
2018-02-06T21:57:58.936Z,17.75
2018-02-06T21:58:59.379Z,17.75
2018-02-06T21:59:58.819Z,17.75
2018-02-06T22:01:58.767Z,17.75
2018-02-06T22:02:59.204Z,17.75
2018-02-06T22:03:58.637Z,17.75
2018-02-06T22:04:59.087Z,17.75
2018-02-06T22:06:58.771Z,17.75
2018-02-06T22:07:59.208Z,17.75
2018-02-06T22:08:58.663Z,17.75
2018-02-06T22:10:01.752Z,17.75
2018-02-06T22:10:59.179Z,17.75
2018-02-06T22:11:58.642Z,17.75
2018-02-06T22:12:59.092Z,17.75
2018-02-06T22:13:58.505Z,17.75
2018-02-06T22:14:58.956Z,17.75
2018-02-06T22:15:58.603Z,17.75
2018-02-06T22:16:59.432Z,17.75
2018-02-06T22:17:58.867Z,17.75
2018-02-06T22:18:59.303Z,17.75
2018-02-06T22:19:58.742Z,17.75
2018-02-06T22:20:59.160Z,17.75
2018-02-06T22:21:58.615Z,17.75
2018-02-06T22:22:59.049Z,17.75
2018-02-06T22:23:58.505Z,17.75
2018-02-06T22:24:58.992Z,17.75
2018-02-06T22:25:59.439Z,17.75
2018-02-06T22:26:58.935Z,17.75
2018-02-06T22:28:58.553Z,17.75
2018-02-06T22:30:58.557Z,17.75
2018-02-06T22:31:59.289Z,17.75
2018-02-06T22:32:58.715Z,17.75
2018-02-06T22:33:59.144Z,17.75
2018-02-06T22:34:58.574Z,17.75
2018-02-06T22:35:59.000Z,17.75
2018-02-06T22:36:59.444Z,17.75
2018-02-06T22:37:58.859Z,17.75
2018-02-06T22:38:59.284Z,17.5
2018-02-06T22:39:58.706Z,17.75
2018-02-06T22:40:59.136Z,17.75
2018-02-06T22:42:58.770Z,17.5
2018-02-06T22:43:59.319Z,17.5
2018-02-06T22:44:58.626Z,17.5
2018-02-06T22:45:59.066Z,17.5
2018-02-06T22:46:58.770Z,17.5
2018-02-06T22:47:59.231Z,17.5
2018-02-06T22:48:58.665Z,17.5
2018-02-06T22:49:59.103Z,17.5
2018-02-06T22:50:58.540Z,17.5
2018-02-06T22:51:59.003Z,17.5
2018-02-06T22:52:59.437Z,17.5
2018-02-06T22:53:58.853Z,17.5
2018-02-06T22:54:59.293Z,17.5
2018-02-06T22:55:58.816Z,17.5
2018-02-06T22:56:59.313Z,17.5
2018-02-06T22:57:58.776Z,17.5
2018-02-06T22:58:59.261Z,17.5
2018-02-06T22:59:58.700Z,17.5
2018-02-06T23:00:59.231Z,17.5
2018-02-06T23:01:58.787Z,17.5
2018-02-06T23:02:59.223Z,17.5
2018-02-06T23:03:58.742Z,17.5
2018-02-06T23:04:59.201Z,17.5
2018-02-06T23:05:58.644Z,17.5
2018-02-06T23:06:59.113Z,17.5
2018-02-06T23:07:58.547Z,17.5
2018-02-06T23:08:58.975Z,17.5
2018-02-06T23:09:59.404Z,17.5
2018-02-06T23:10:58.836Z,17.5
2018-02-06T23:11:59.300Z,17.5
2018-02-06T23:12:58.740Z,17.5
2018-02-06T23:13:59.172Z,17.5
2018-02-06T23:14:58.604Z,17.5
2018-02-06T23:15:59.045Z,17.5
2018-02-06T23:16:58.719Z,17.5
2018-02-06T23:17:59.141Z,17.5
2018-02-06T23:18:58.581Z,17.5
2018-02-06T23:19:59.000Z,17.5
2018-02-06T23:20:59.440Z,17.5
2018-02-06T23:21:58.881Z,17.5
2018-02-06T23:22:59.326Z,17.5
2018-02-06T23:23:59.011Z,17.5
2018-02-06T23:24:59.428Z,17.5
2018-02-06T23:25:58.874Z,17.5
2018-02-06T23:26:59.299Z,17.5
2018-02-06T23:27:58.746Z,17.5
2018-02-06T23:28:59.300Z,17.5
2018-02-06T23:29:58.733Z,17.5
2018-02-06T23:30:59.191Z,17.5
2018-02-06T23:32:58.988Z,17.25
2018-02-06T23:33:59.421Z,17.5
2018-02-06T23:34:58.860Z,17.5
2018-02-06T23:35:59.317Z,17.25
2018-02-06T23:36:58.781Z,17.25
2018-02-06T23:37:59.188Z,17.25
2018-02-06T23:38:58.625Z,17.5
2018-02-06T23:39:59.078Z,17.25
2018-02-06T23:40:58.487Z,17.25
2018-02-06T23:41:58.968Z,17.25
2018-02-06T23:42:59.392Z,17.25
2018-02-06T23:43:58.858Z,17.25
2018-02-06T23:44:59.288Z,17.25
2018-02-06T23:45:58.698Z,17.25
2018-02-06T23:46:59.116Z,17.25
2018-02-06T23:47:58.542Z,17.25
2018-02-06T23:48:58.982Z,17.25
2018-02-06T23:49:59.427Z,17.25
2018-02-06T23:50:58.941Z,17.25
2018-02-06T23:51:59.367Z,17.25
2018-02-06T23:52:58.793Z,17.25
2018-02-06T23:53:59.233Z,17.25
2018-02-06T23:54:58.649Z,17.25
2018-02-06T23:55:59.101Z,17.25
2018-02-06T23:56:58.536Z,17.25
2018-02-06T23:57:58.967Z,17.25
2018-02-06T23:58:59.450Z,17.25
2018-02-06T23:59:58.914Z,17.25
